createdAt,value
2023-06-04T00:01:30.333Z,7.40
2023-06-04T00:03:57.494Z,7.40
2023-06-04T00:06:24.465Z,7.40
2023-06-04T00:08:51.443Z,7.40
2023-06-04T00:11:18.286Z,7.30
2023-06-04T00:13:45.236Z,7.30
2023-06-04T00:16:12.178Z,7.30
2023-06-04T00:18:39.014Z,7.20
2023-06-04T00:21:06.180Z,7.20
2023-06-04T00:23:33.204Z,7.20
2023-06-04T00:26:00.298Z,7.20
2023-06-04T00:28:27.233Z,7.10
2023-06-04T00:30:54.164Z,7.00
2023-06-04T00:33:21.087Z,6.90
2023-06-04T00:35:48.477Z,6.90
2023-06-04T00:38:15.276Z,6.80
2023-06-04T00:40:42.252Z,6.80
2023-06-04T00:43:09.726Z,6.80
2023-06-04T00:45:36.571Z,6.90
2023-06-04T00:48:03.440Z,6.80
2023-06-04T00:50:30.244Z,6.90
2023-06-04T00:52:59.067Z,7.00
2023-06-04T00:55:25.955Z,7.10
2023-06-04T00:57:52.748Z,7.10
2023-06-04T01:00:19.595Z,7.00
2023-06-04T01:02:46.549Z,6.90
2023-06-04T01:05:26.514Z,6.80
2023-06-04T01:07:53.445Z,6.70
2023-06-04T01:10:20.220Z,6.80
2023-06-04T01:12:47.009Z,6.80
2023-06-04T01:15:13.879Z,6.90
2023-06-04T01:17:42.092Z,7.00
2023-06-04T01:20:09.812Z,7.00
2023-06-04T01:22:36.796Z,6.90
2023-06-04T01:25:04.873Z,7.00
2023-06-04T01:27:33.312Z,6.90
2023-06-04T01:30:01.613Z,6.90
2023-06-04T01:32:28.798Z,6.90
2023-06-04T01:34:55.687Z,6.90
2023-06-04T01:37:22.967Z,6.80
2023-06-04T01:39:49.857Z,6.60
2023-06-04T01:42:16.832Z,6.70
2023-06-04T01:44:43.556Z,7.00
2023-06-04T01:47:10.436Z,6.40
2023-06-04T01:49:38.923Z,6.50
2023-06-04T01:52:06.890Z,6.60
2023-06-04T01:54:34.995Z,6.60
2023-06-04T01:57:02.036Z,6.40
2023-06-04T01:59:28.868Z,6.50
2023-06-04T02:01:55.679Z,6.50
2023-06-04T02:04:22.530Z,6.50
2023-06-04T02:06:49.939Z,6.50
2023-06-04T02:09:16.888Z,6.50
2023-06-04T02:11:44.040Z,6.50
2023-06-04T02:14:11.182Z,6.40
2023-06-04T02:16:38.887Z,6.50
2023-06-04T02:19:06.040Z,6.50
2023-06-04T02:21:32.824Z,6.50
2023-06-04T02:23:59.742Z,6.50
2023-06-04T02:26:26.666Z,6.50
2023-06-04T02:28:53.436Z,6.40
2023-06-04T02:31:20.456Z,6.30
2023-06-04T02:33:47.380Z,6.20
2023-06-04T02:36:14.237Z,6.10
2023-06-04T02:38:41.162Z,6.00
2023-06-04T02:41:08.393Z,6.00
2023-06-04T02:43:35.687Z,6.00
2023-06-04T02:46:02.531Z,6.00
2023-06-04T02:48:29.377Z,6.00
2023-06-04T02:50:56.284Z,6.00
2023-06-04T02:53:24.823Z,5.90
2023-06-04T02:55:54.555Z,5.90
2023-06-04T02:58:22.889Z,5.90
2023-06-04T03:00:49.667Z,6.00
2023-06-04T03:03:16.553Z,5.90
2023-06-04T03:05:44.180Z,5.90
2023-06-04T03:08:11.082Z,5.90
2023-06-04T03:10:38.051Z,5.90
2023-06-04T03:13:05.451Z,5.90
2023-06-04T03:15:32.377Z,6.00
2023-06-04T03:17:59.431Z,6.00
2023-06-04T03:20:26.379Z,6.10
2023-06-04T03:22:53.158Z,6.20
2023-06-04T03:25:19.987Z,6.20
2023-06-04T03:27:46.807Z,6.20
2023-06-04T03:30:13.947Z,6.10
2023-06-04T03:32:41.120Z,6.20
2023-06-04T03:35:08.207Z,6.20
2023-06-04T03:37:35.023Z,6.20
2023-06-04T03:40:02.965Z,6.40
2023-06-04T03:42:29.731Z,6.40
2023-06-04T03:44:59.194Z,6.50
2023-06-04T03:47:26.130Z,6.50
2023-06-04T03:49:52.938Z,6.50
2023-06-04T03:52:19.734Z,6.60
2023-06-04T03:54:46.526Z,6.50
2023-06-04T03:57:13.305Z,6.50
2023-06-04T03:59:40.134Z,6.50
2023-06-04T04:02:07.198Z,6.50
2023-06-04T04:04:36.924Z,6.50
2023-06-04T04:07:03.691Z,6.50
2023-06-04T04:09:30.638Z,6.60
2023-06-04T04:11:57.501Z,6.70
2023-06-04T04:14:24.278Z,6.80
2023-06-04T04:16:51.233Z,7.00
2023-06-04T04:19:18.854Z,7.10
2023-06-04T04:21:49.501Z,7.20
2023-06-04T04:24:25.794Z,7.40
2023-06-04T04:26:54.531Z,7.40
2023-06-04T04:29:23.786Z,7.50
2023-06-04T04:31:50.901Z,7.50
2023-06-04T04:34:18.007Z,7.50
2023-06-04T04:36:45.327Z,7.60
2023-06-04T04:39:13.005Z,7.70
2023-06-04T04:41:39.767Z,7.80
2023-06-04T04:44:06.660Z,8.00
2023-06-04T04:46:33.518Z,8.10
2023-06-04T04:49:00.326Z,8.20
2023-06-04T04:51:27.124Z,8.10
2023-06-04T04:53:55.764Z,8.40
2023-06-04T04:59:28.515Z,8.20
2023-06-04T05:01:55.407Z,8.60
2023-06-04T05:04:22.266Z,8.80
2023-06-04T05:06:49.064Z,8.90
2023-06-04T05:09:16.884Z,8.90
2023-06-04T05:11:43.721Z,9.00
2023-06-04T05:14:10.478Z,9.10
2023-06-04T05:16:37.264Z,9.30
2023-06-04T05:19:04.491Z,9.40
2023-06-04T05:21:31.292Z,9.50
2023-06-04T05:23:58.155Z,9.70
2023-06-04T05:26:29.219Z,9.80
2023-06-04T05:28:59.114Z,9.90
2023-06-04T05:31:28.011Z,10.10
2023-06-04T05:33:54.826Z,10.20
2023-06-04T05:36:21.589Z,10.20
2023-06-04T05:38:48.391Z,10.40
2023-06-04T05:41:15.659Z,10.50
2023-06-04T05:43:45.708Z,10.60
2023-06-04T05:46:12.709Z,10.70
2023-06-04T05:48:39.546Z,10.80
2023-06-04T05:51:07.152Z,10.90
2023-06-04T05:53:34.167Z,11.10
2023-06-04T05:56:01.084Z,11.10
2023-06-04T05:58:27.926Z,11.20
2023-06-04T06:00:56.204Z,11.40
2023-06-04T06:03:23.092Z,11.50
2023-06-04T06:05:50.048Z,11.70
2023-06-04T06:08:16.878Z,11.90
2023-06-04T06:10:43.595Z,11.90
2023-06-04T06:13:10.329Z,12.10
2023-06-04T06:15:37.139Z,12.30
2023-06-04T06:18:03.966Z,12.50
2023-06-04T06:20:30.866Z,12.60
2023-06-04T06:22:57.647Z,12.70
2023-06-04T06:25:24.829Z,12.90
2023-06-04T06:27:52.568Z,13.10
2023-06-04T06:30:19.758Z,13.30
2023-06-04T06:32:47.237Z,13.50
2023-06-04T06:35:14.194Z,13.50
2023-06-04T06:37:43.159Z,13.70
2023-06-04T06:40:10.856Z,14.00
2023-06-04T06:42:37.792Z,14.10
2023-06-04T06:54:47.537Z,15.20
2023-06-04T06:57:14.508Z,15.40
2023-06-04T06:59:41.406Z,15.50
2023-06-04T07:02:08.379Z,15.60
2023-06-04T07:04:35.483Z,15.80
2023-06-04T07:07:02.432Z,16.00
2023-06-04T07:09:29.470Z,16.10
2023-06-04T07:11:56.529Z,16.20
2023-06-04T07:14:23.356Z,16.30
2023-06-04T07:16:50.202Z,16.50
2023-06-04T07:19:17.110Z,16.60
2023-06-04T07:21:43.940Z,16.70
2023-06-04T07:24:11.367Z,16.70
2023-06-04T07:26:38.185Z,16.80
2023-06-04T07:29:05.003Z,16.80
2023-06-04T07:31:31.891Z,16.80
2023-06-04T07:33:58.749Z,16.90
2023-06-04T07:36:25.692Z,16.90
2023-06-04T07:38:52.774Z,17.00
2023-06-04T07:41:20.229Z,17.00
2023-06-04T07:43:47.049Z,17.10
2023-06-04T07:46:13.926Z,17.20
2023-06-04T07:48:40.781Z,17.30
2023-06-04T07:51:07.865Z,17.30
2023-06-04T07:53:34.750Z,17.30
2023-06-04T07:56:01.578Z,17.40
2023-06-04T07:58:28.346Z,17.50
2023-06-04T08:00:55.124Z,17.50
2023-06-04T08:03:22.555Z,17.50
2023-06-04T08:05:49.533Z,17.70
2023-06-04T08:08:16.283Z,17.80
2023-06-04T08:10:43.076Z,17.80
2023-06-04T08:13:11.011Z,17.70
2023-06-04T08:15:37.800Z,17.60
2023-06-04T08:18:04.669Z,17.60
2023-06-04T08:20:31.509Z,17.60
2023-06-04T08:22:58.351Z,17.70
2023-06-04T08:25:25.317Z,17.80
2023-06-04T08:27:52.226Z,18.00
2023-06-04T08:30:18.983Z,18.20
2023-06-04T08:32:45.858Z,18.40
2023-06-04T08:35:12.697Z,18.40
2023-06-04T08:37:39.509Z,18.50
2023-06-04T08:40:07.856Z,18.50
2023-06-04T08:42:37.197Z,18.60
2023-06-04T08:45:04.037Z,18.70
2023-06-04T08:47:30.791Z,18.80
2023-06-04T08:50:00.261Z,18.90
2023-06-04T08:52:27.135Z,19.10
2023-06-04T08:54:56.034Z,19.20
2023-06-04T08:57:22.755Z,19.40
2023-06-04T08:59:49.587Z,19.70
2023-06-04T09:02:16.324Z,19.90
2023-06-04T09:04:43.434Z,19.90
2023-06-04T09:07:11.329Z,19.90
2023-06-04T09:09:41.490Z,20.20
2023-06-04T09:12:12.089Z,20.30
2023-06-04T09:14:38.870Z,20.50
2023-06-04T09:17:06.555Z,20.50
2023-06-04T09:19:33.398Z,20.40
2023-06-04T09:22:00.627Z,20.60
2023-06-04T09:24:39.521Z,20.80
2023-06-04T09:27:13.650Z,21.00
2023-06-04T09:29:41.292Z,20.90
2023-06-04T09:32:08.049Z,20.90
2023-06-04T09:34:34.772Z,21.00
2023-06-04T09:37:01.578Z,21.30
2023-06-04T09:39:28.310Z,21.40
2023-06-04T09:41:58.618Z,21.50
2023-06-04T09:44:25.376Z,21.50
2023-06-04T09:46:58.724Z,21.50
2023-06-04T09:49:25.801Z,21.70
2023-06-04T09:51:52.617Z,21.70
2023-06-04T09:54:19.647Z,21.70
2023-06-04T09:56:46.384Z,21.80
2023-06-04T09:59:13.231Z,21.80
2023-06-04T10:01:41.715Z,21.70
2023-06-04T10:04:09.391Z,21.70
2023-06-04T10:06:36.912Z,21.90
2023-06-04T10:09:07.742Z,22.20
2023-06-04T10:11:51.313Z,22.50
2023-06-04T10:14:18.066Z,22.80
2023-06-04T10:16:44.805Z,23.00
2023-06-04T10:19:11.569Z,23.20
2023-06-04T10:21:38.746Z,23.30
2023-06-04T10:24:05.764Z,23.00
2023-06-04T10:26:33.867Z,22.70
2023-06-04T10:29:01.491Z,22.70
2023-06-04T10:31:28.250Z,23.00
2023-06-04T10:33:58.706Z,23.50
2023-06-04T10:36:25.840Z,23.50
2023-06-04T10:38:55.685Z,23.30
2023-06-04T10:41:24.057Z,23.10
2023-06-04T10:43:51.199Z,23.00
2023-06-04T10:46:19.078Z,22.70
2023-06-04T10:48:49.741Z,22.70
2023-06-04T10:51:16.879Z,23.10
2023-06-04T10:53:43.699Z,23.40
2023-06-04T10:56:10.484Z,23.50
2023-06-04T10:58:37.471Z,23.60
2023-06-04T11:01:04.345Z,23.30
2023-06-04T11:03:37.686Z,23.30
2023-06-04T11:06:14.878Z,23.30
2023-06-04T11:08:41.767Z,23.50
2023-06-04T11:11:12.281Z,24.10
2023-06-04T11:13:39.131Z,24.50
2023-06-04T11:16:15.323Z,24.80
2023-06-04T11:18:42.128Z,24.70
2023-06-04T11:21:08.979Z,24.70
2023-06-04T11:23:35.918Z,24.90
2023-06-04T11:26:02.668Z,24.90
2023-06-04T11:28:29.497Z,25.10
2023-06-04T11:31:07.382Z,25.50
2023-06-04T11:33:46.703Z,25.90
2023-06-04T11:36:23.226Z,25.50
2023-06-04T11:38:59.606Z,25.50
2023-06-04T11:41:32.491Z,25.70
2023-06-04T11:44:02.431Z,25.90
2023-06-04T11:46:29.197Z,26.00
2023-06-04T11:48:55.993Z,26.30
2023-06-04T11:51:22.746Z,26.30
2023-06-04T11:53:49.464Z,26.40
2023-06-04T11:56:16.791Z,26.40
2023-06-04T11:58:43.660Z,26.70
2023-06-04T12:01:10.381Z,26.60
2023-06-04T12:03:38.560Z,26.50
2023-06-04T12:06:14.861Z,25.90
2023-06-04T12:08:48.730Z,26.40
2023-06-04T12:11:28.264Z,27.00
2023-06-04T12:13:55.807Z,27.00
2023-06-04T12:16:22.654Z,27.60
2023-06-04T12:18:51.703Z,27.90
2023-06-04T12:21:30.713Z,28.40
2023-06-04T12:50:53.772Z,27.90
2023-06-04T12:53:20.663Z,27.80
2023-06-04T12:55:47.450Z,27.80
2023-06-04T12:58:14.279Z,28.10
2023-06-04T13:00:41.123Z,28.10
2023-06-04T13:03:09.802Z,27.80
2023-06-04T13:05:37.538Z,27.60
2023-06-04T13:08:05.166Z,27.80
2023-06-04T13:10:32.027Z,28.20
2023-06-04T13:15:45.193Z,29.10
2023-06-04T13:18:12.103Z,29.10
2023-06-04T13:20:38.982Z,29.20
2023-06-04T13:23:05.682Z,29.30
2023-06-04T13:25:34.349Z,29.30
2023-06-04T13:28:01.461Z,29.80
2023-06-04T13:30:28.753Z,29.60
2023-06-04T13:32:55.974Z,30.00
2023-06-04T13:35:22.877Z,29.00
2023-06-04T13:37:49.738Z,30.30
2023-06-04T13:40:16.712Z,30.00
2023-06-04T13:42:46.569Z,29.70
2023-06-04T13:45:13.353Z,29.50
2023-06-04T13:47:40.295Z,29.50
2023-06-04T13:50:07.538Z,29.40
2023-06-04T13:52:34.745Z,29.80
2023-06-04T13:55:01.652Z,30.00
2023-06-04T13:57:28.861Z,30.30
2023-06-04T13:59:55.680Z,30.40
2023-06-04T14:02:22.778Z,30.30
2023-06-04T14:04:50.970Z,30.40
2023-06-04T14:07:18.139Z,30.90
2023-06-04T14:09:44.933Z,30.90
2023-06-04T14:12:11.865Z,30.70
2023-06-04T14:14:41.922Z,30.50
2023-06-04T14:17:09.185Z,30.40
2023-06-04T14:19:36.118Z,30.40
2023-06-04T14:22:03.546Z,30.40
2023-06-04T14:24:31.645Z,30.70
2023-06-04T14:26:58.471Z,30.10
2023-06-04T14:29:25.289Z,29.80
2023-06-04T14:31:52.091Z,29.60
2023-06-04T14:34:19.084Z,29.80
2023-06-04T14:36:46.807Z,29.70
2023-06-04T14:39:13.697Z,29.60
2023-06-04T14:41:40.653Z,29.60
2023-06-04T14:44:07.560Z,29.40
2023-06-04T14:46:34.569Z,29.70
2023-06-04T14:49:02.706Z,29.50
2023-06-04T14:51:29.522Z,29.70
2023-06-04T14:53:56.636Z,29.70
2023-06-04T14:56:23.732Z,29.00
2023-06-04T14:58:50.589Z,27.90
2023-06-04T15:01:17.734Z,27.40
2023-06-04T15:03:46.538Z,27.00
2023-06-04T15:12:41.851Z,28.10
2023-06-04T15:15:09.282Z,28.20
2023-06-04T15:17:37.023Z,27.90
2023-06-04T15:20:04.497Z,27.80
2023-06-04T15:22:31.407Z,27.50
2023-06-04T15:24:58.273Z,26.90
2023-06-04T15:27:25.108Z,26.70
2023-06-04T15:29:53.121Z,26.60
2023-06-04T15:32:20.882Z,26.10
2023-06-04T15:34:47.727Z,26.00
2023-06-04T15:37:14.609Z,25.50
2023-06-04T15:39:41.752Z,25.20
2023-06-04T15:42:09.001Z,24.90
2023-06-04T15:44:35.881Z,24.60
2023-06-04T15:47:02.770Z,24.30
2023-06-04T15:49:30.928Z,24.80
2023-06-04T15:51:57.726Z,24.00
2023-06-04T15:54:45.172Z,24.30
2023-06-04T15:57:17.593Z,24.10
2023-06-04T15:59:44.698Z,24.00
2023-06-04T16:02:11.762Z,24.00
2023-06-04T16:04:38.711Z,23.50
2023-06-04T16:07:08.526Z,23.70
2023-06-04T16:09:35.429Z,23.60
2023-06-04T16:12:02.640Z,23.50
2023-06-04T16:14:29.748Z,23.40
2023-06-04T16:16:56.808Z,23.40
2023-06-04T16:19:26.465Z,23.40
2023-06-04T16:21:53.304Z,23.20
2023-06-04T16:24:20.072Z,23.30
2023-06-04T16:26:46.850Z,23.10
2023-06-04T16:29:13.617Z,23.10
2023-06-04T16:31:40.542Z,23.00
2023-06-04T16:34:07.444Z,22.90
2023-06-04T16:36:34.637Z,22.80
2023-06-04T16:39:01.488Z,22.90
2023-06-04T16:41:28.595Z,22.90
2023-06-04T16:43:55.510Z,22.70
2023-06-04T16:46:23.099Z,22.60
2023-06-04T16:48:50.032Z,22.60
2023-06-04T16:51:16.777Z,22.50
2023-06-04T16:53:43.502Z,22.40
2023-06-04T16:56:11.069Z,22.40
2023-06-04T16:58:41.939Z,22.40
2023-06-04T17:01:11.359Z,22.30
2023-06-04T17:03:38.512Z,22.30
2023-06-04T17:06:06.599Z,22.20
2023-06-04T17:08:33.850Z,22.10
2023-06-04T17:11:00.773Z,22.00
2023-06-04T17:13:27.554Z,21.90
2023-06-04T17:15:54.390Z,21.90
2023-06-04T17:18:21.813Z,21.80
2023-06-04T17:20:48.806Z,21.90
2023-06-04T18:25:47.564Z,20.00
2023-06-04T18:34:21.717Z,19.50
2023-06-04T18:36:49.177Z,19.20
2023-06-04T18:39:16.140Z,18.90
2023-06-04T18:41:43.456Z,18.70
2023-06-04T18:44:10.237Z,18.50
2023-06-04T18:46:37.187Z,18.20
2023-06-04T18:49:04.128Z,18.00
2023-06-04T18:51:31.338Z,17.90
2023-06-04T18:53:58.196Z,17.90
2023-06-04T18:56:25.056Z,17.90
2023-06-04T18:58:53.153Z,17.80
2023-06-04T19:01:20.153Z,17.50
2023-06-04T19:03:47.196Z,17.40
2023-06-04T19:06:14.034Z,17.50
2023-06-04T19:08:40.800Z,17.50
2023-06-04T19:11:10.718Z,17.40
2023-06-04T19:13:37.486Z,17.40
2023-06-04T19:16:04.388Z,17.30
2023-06-04T19:18:31.258Z,17.30
2023-06-04T19:20:58.051Z,17.00
2023-06-04T19:23:24.944Z,16.80
2023-06-04T19:25:52.005Z,16.50
2023-06-04T19:28:19.284Z,16.30
2023-06-04T19:30:46.197Z,16.10
2023-06-04T19:33:13.161Z,16.00
2023-06-04T19:35:40.104Z,15.80
2023-06-04T19:38:07.364Z,15.80
2023-06-04T19:40:35.104Z,15.70
2023-06-04T19:43:01.932Z,15.60
2023-06-04T19:45:28.714Z,15.50
2023-06-04T19:47:56.240Z,15.30
2023-06-04T19:50:23.062Z,15.10
2023-06-04T19:52:50.162Z,15.00
2023-06-04T19:55:17.726Z,14.90
2023-06-04T19:57:45.433Z,14.70
2023-06-04T20:00:12.846Z,14.70
2023-06-04T20:02:39.636Z,14.50
2023-06-04T20:05:06.688Z,14.40
2023-06-04T20:07:35.793Z,14.30
2023-06-04T20:10:02.848Z,14.20
2023-06-04T20:12:29.670Z,14.00
2023-06-04T20:14:56.504Z,13.90
2023-06-04T20:17:23.400Z,13.80
2023-06-04T20:19:54.965Z,13.80
2023-06-04T20:22:21.846Z,13.70
2023-06-04T20:24:48.576Z,13.60
2023-06-04T20:27:18.243Z,13.60
2023-06-04T20:29:51.383Z,13.50
2023-06-04T20:32:18.209Z,13.50
2023-06-04T20:34:45.017Z,13.30
2023-06-04T20:37:12.102Z,13.20
2023-06-04T20:39:40.713Z,13.20
2023-06-04T20:42:07.638Z,13.10
2023-06-04T20:44:34.682Z,13.00
2023-06-04T20:47:01.647Z,12.90
2023-06-04T20:49:28.405Z,12.90
2023-06-04T20:51:55.194Z,12.70
2023-06-04T20:54:22.009Z,12.60
2023-06-04T20:56:48.723Z,12.60
2023-06-04T20:59:16.143Z,12.50
2023-06-04T21:01:43.096Z,12.50
2023-06-04T21:04:11.786Z,12.60
2023-06-04T21:06:38.789Z,12.80
2023-06-04T21:09:06.973Z,13.00
2023-06-04T21:11:33.732Z,13.00
2023-06-04T21:14:00.517Z,12.80
2023-06-04T21:16:27.400Z,12.70
2023-06-04T21:18:54.246Z,12.50
2023-06-04T21:21:21.329Z,12.50
2023-06-04T21:23:48.566Z,12.30
2023-06-04T21:26:15.391Z,12.30
2023-06-04T21:28:42.198Z,12.20
2023-06-04T21:31:09.220Z,12.10
2023-06-04T21:33:36.605Z,11.90
2023-06-04T21:36:03.453Z,11.70
2023-06-04T21:38:30.292Z,11.70
2023-06-04T21:40:57.120Z,11.60
2023-06-04T21:43:24.350Z,11.50
2023-06-04T21:45:51.808Z,11.40
2023-06-04T21:48:18.637Z,11.40
2023-06-04T21:50:45.473Z,11.30
2023-06-04T21:53:12.272Z,11.20
2023-06-04T21:55:39.105Z,11.20
2023-06-04T21:58:05.908Z,11.10
2023-06-04T22:00:32.871Z,11.10
2023-06-04T22:02:59.839Z,11.00
2023-06-04T22:05:26.648Z,11.00
2023-06-04T22:07:53.459Z,11.00
2023-06-04T22:10:20.520Z,11.40
2023-06-04T22:12:47.294Z,11.70
2023-06-04T22:15:14.110Z,11.80
2023-06-04T22:17:40.949Z,11.90
2023-06-04T22:20:08.061Z,12.00
2023-06-04T22:22:34.920Z,12.10
2023-06-04T22:25:01.730Z,12.10
2023-06-04T22:27:28.513Z,12.00
2023-06-04T22:29:55.465Z,12.10
2023-06-04T22:32:22.541Z,12.10
2023-06-04T22:34:49.430Z,12.20
2023-06-04T22:37:16.334Z,12.10
2023-06-04T22:39:43.447Z,12.00
2023-06-04T22:42:10.223Z,12.00
2023-06-04T22:44:37.105Z,12.00
2023-06-04T22:47:04.069Z,12.00
2023-06-04T22:49:30.978Z,11.80
2023-06-04T22:51:57.887Z,11.70
2023-06-04T22:54:24.744Z,11.50
2023-06-04T22:56:51.505Z,11.30
2023-06-04T22:59:18.334Z,11.10
2023-06-04T23:01:45.160Z,11.00
2023-06-04T23:04:12.112Z,10.80
2023-06-04T23:06:38.933Z,10.60
2023-06-04T23:09:05.966Z,10.50
2023-06-04T23:11:32.727Z,10.40
2023-06-04T23:13:59.573Z,10.40
2023-06-04T23:16:26.391Z,10.30
2023-06-04T23:18:53.193Z,10.30
2023-06-04T23:21:20.004Z,10.30
2023-06-04T23:23:46.817Z,10.30
2023-06-04T23:26:14.062Z,10.30
2023-06-04T23:28:40.863Z,10.30
2023-06-04T23:31:07.911Z,10.20
2023-06-04T23:33:34.996Z,10.20
2023-06-04T23:36:01.889Z,10.20
2023-06-04T23:38:28.696Z,10.20
2023-06-04T23:40:55.532Z,10.20
2023-06-04T23:43:22.257Z,10.10
2023-06-04T23:45:49.196Z,10.10
2023-06-04T23:48:17.616Z,10.10
2023-06-04T23:50:44.421Z,10.10
2023-06-04T23:53:11.218Z,10.20
2023-06-04T23:55:39.898Z,10.20
2023-06-04T23:58:07.020Z,10.10
